logo
Search for airport 
image banner adimage banner adimage banner ad
image banner ad

SWQF - Miguel Dias Iii

Located in Guaramiranga, Brazil

ICAO - SWQF, IATA -

Data provided by Airmate  

General information

Coordinates: S4°14'18" W38°58'53"
Elevation is 3051 feet MSL.
Magnetic variation is -20.947876658° East
View others Airports in Ceará

Operational data

Special qualification required
Current time UTC:
Current local time:
Weather at : SBFZ - Pinto Martins ( 72 km )
TAF: TAF SBFZ 151646Z 1518/1618 13017KT 9999 FEW030 TX30/1518Z TN23/1609Z BECMG 1522/1524 11012KT BECMG 1610/1612 14017KT RMK PFV
View NOTAMs / SUP AIP / TFR affecting this airport [VIEW]
Communications frequencies: [VIEW]

Runways:

Airport contact information

Address: Guaramiranga Brazil

Satellite view of SWQF